Time;durP1;ratioP1;P1;durP2;ratioP2;P2;SDS_P1;SDS_P2;PMS_P1;PMS_P2;Temp;Humidity;BMP_temperature;BMP_pressure;BME280_temperature;BME280_humidity;BME280_pressure;Samples;Min_cycle;Max_cycle;Signal;HPM_P1;HPM_P2
2023/01/11 00:01:20;;;;;;;5.10;2.63;;;16.00;99.90;;;;;;5073020;28;20024;-68
2023/01/11 00:03:46;;;;;;;0.20;0.20;;;16.00;99.90;;;;;;5072850;28;20051;-69
2023/01/11 00:06:12;;;;;;;0.20;0.20;;;15.90;99.90;;;;;;5072716;28;20032;-68
2023/01/11 00:08:38;;;;;;;2.20;2.05;;;15.90;99.90;;;;;;5072984;28;20029;-68
2023/01/11 00:11:09;;;;;;;0.73;0.73;;;15.80;99.90;;;;;;5072778;28;20427;-68
2023/01/11 00:13:35;;;;;;;0.10;0.10;;;15.70;99.90;;;;;;5072556;28;20044;-68
2023/01/11 00:16:08;;;;;;;0.40;0.40;;;15.70;99.90;;;;;;5071563;28;20492;-67
2023/01/11 00:18:35;;;;;;;0.28;0.28;;;15.60;99.90;;;;;;5072701;28;20021;-67
2023/01/11 00:21:05;;;;;;;0.45;0.40;;;15.60;99.90;;;;;;5072565;28;20025;-67
2023/01/11 00:23:35;;;;;;;0.20;0.20;;;15.60;99.90;;;;;;5071548;28;20032;-67
2023/01/11 00:26:06;;;;;;;0.15;0.15;;;15.60;99.90;;;;;;5072594;28;20020;-68
2023/01/11 00:28:32;;;;;;;0.20;0.20;;;15.50;99.90;;;;;;5073158;28;20031;-67
2023/01/11 00:30:58;;;;;;;0.30;0.30;;;15.50;99.90;;;;;;5073256;28;20024;-67
2023/01/11 00:33:24;;;;;;;1.17;1.15;;;15.40;99.90;;;;;;5072886;28;20028;-67
2023/01/11 00:35:51;;;;;;;0.40;0.40;;;15.40;99.90;;;;;;5072465;28;20377;-68
2023/01/11 00:49:18;;;;;;;3.20;1.92;;;15.20;99.90;;;;;;5072863;28;20523;-68
2023/01/11 00:51:44;;;;;;;1.15;1.05;;;15.20;99.90;;;;;;5072844;28;20032;-67
2023/01/11 00:54:10;;;;;;;0.20;0.20;;;15.10;99.90;;;;;;5072393;28;20029;-67
2023/01/11 00:56:36;;;;;;;1.60;1.60;;;15.10;99.90;;;;;;5072237;28;20021;-67
2023/01/11 00:59:01;;;;;;;0.20;0.20;;;15.00;99.90;;;;;;5072315;28;20028;-66
2023/01/11 01:01:27;;;;;;;0.20;0.20;;;15.00;99.90;;;;;;5072077;28;20067;-67
2023/01/11 01:03:53;;;;;;;0.20;0.20;;;14.90;99.90;;;;;;5071920;28;20044;-66
2023/01/11 01:06:19;;;;;;;1.35;1.23;;;14.90;99.90;;;;;;5072047;28;20025;-67
2023/01/11 01:08:44;;;;;;;0.20;0.20;;;14.90;99.90;;;;;;5071856;28;20507;-67
2023/01/11 01:11:10;;;;;;;0.52;0.52;;;14.80;99.90;;;;;;5071802;28;20020;-67
2023/01/11 01:16:20;;;;;;;9.65;2.30;;;14.80;99.90;;;;;;5071374;28;20036;-67
2023/01/11 01:18:46;;;;;;;0.20;0.20;;;14.70;99.90;;;;;;5071857;28;20021;-67
2023/01/11 01:21:11;;;;;;;0.20;0.20;;;14.70;99.90;;;;;;5071675;28;20021;-67
2023/01/11 01:23:37;;;;;;;0.20;0.20;;;14.70;99.90;;;;;;5071497;28;20035;-67
2023/01/11 01:26:04;;;;;;;0.20;0.20;;;14.60;99.90;;;;;;5071436;28;20445;-67
2023/01/11 01:28:30;;;;;;;0.20;0.20;;;14.60;99.90;;;;;;5071166;28;20466;-67
2023/01/11 01:30:55;;;;;;;0.20;0.20;;;14.60;99.90;;;;;;5071562;28;20028;-67
2023/01/11 01:33:21;;;;;;;0.20;0.20;;;14.60;99.90;;;;;;5071159;28;20035;-67
2023/01/11 01:35:47;;;;;;;0.55;0.55;;;14.50;99.90;;;;;;5071258;28;20024;-67
2023/01/11 01:38:13;;;;;;;0.20;0.20;;;14.50;99.90;;;;;;5069941;28;20081;-67
2023/01/11 01:40:46;;;;;;;0.20;0.20;;;14.50;99.90;;;;;;5071011;28;20023;-67
2023/01/11 01:43:15;;;;;;;0.10;0.10;;;14.50;99.90;;;;;;5069947;28;20071;-66
2023/01/11 01:45:41;;;;;;;0.20;0.20;;;14.40;99.90;;;;;;5071123;28;20452;-67
2023/01/11 01:48:11;;;;;;;0.20;0.20;;;14.50;99.90;;;;;;5071198;28;20017;-67
2023/01/11 01:50:47;;;;;;;3.28;3.03;;;14.50;99.90;;;;;;5071089;28;20032;-67
2023/01/11 01:53:17;;;;;;;0.30;0.30;;;14.50;99.90;;;;;;5071106;28;20060;-67
2023/01/11 01:55:48;;;;;;;0.20;0.20;;;14.50;99.90;;;;;;5071973;28;20668;-67
2023/01/11 01:58:17;;;;;;;0.20;0.20;;;14.40;99.90;;;;;;5071692;28;20005;-67
2023/01/11 02:00:44;;;;;;;0.17;0.17;;;14.40;99.90;;;;;;5071462;28;20389;-66
2023/01/11 02:03:18;;;;;;;0.10;0.10;;;14.40;99.90;;;;;;5070911;28;20511;-67
2023/01/11 02:05:44;;;;;;;0.20;0.20;;;14.50;99.90;;;;;;5074388;28;20117;-66
2023/01/11 02:08:34;;;;;;;0.17;0.17;;;14.50;99.90;;;;;;5073709;28;20167;-67
2023/01/11 02:11:02;;;;;;;0.20;0.20;;;14.40;99.90;;;;;;5072743;28;20095;-67
2023/01/11 02:13:29;;;;;;;0.20;0.20;;;14.40;99.90;;;;;;5071042;28;20040;-67
2023/01/11 02:16:07;;;;;;;0.20;0.20;;;14.40;99.90;;;;;;5071104;28;20028;-66
2023/01/11 02:18:35;;;;;;;0.30;0.30;;;14.30;99.90;;;;;;5070916;28;20032;-67
2023/01/11 02:21:31;;;;;;;0.30;0.30;;;14.30;99.90;;;;;;5071091;28;20716;-67
2023/01/11 02:24:53;;;;;;;0.20;0.20;;;14.30;99.90;;;;;;5069464;28;20645;-66
2023/01/11 02:27:56;;;;;;;0.20;0.20;;;14.20;99.90;;;;;;4990393;28;20369;-66
2023/01/11 02:30:46;;;;;;;0.20;0.20;;;14.20;99.90;;;;;;4992743;28;20022;-67
2023/01/11 02:33:27;;;;;;;0.20;0.20;;;14.10;99.90;;;;;;5074662;28;20105;-67
2023/01/11 02:36:04;;;;;;;0.20;0.20;;;14.10;99.90;;;;;;5074901;28;20044;-66
2023/01/11 02:38:57;;;;;;;0.20;0.20;;;14.00;99.90;;;;;;5075180;28;20504;-67
2023/01/11 02:47:39;;;;;;;0.20;0.20;;;13.80;99.90;;;;;;5074546;28;20078;-67
2023/01/11 02:50:10;;;;;;;0.20;0.20;;;13.80;99.90;;;;;;5074300;28;20038;-66
2023/01/11 02:52:43;;;;;;;0.20;0.20;;;13.90;99.90;;;;;;5072664;28;20055;-67
2023/01/11 02:55:14;;;;;;;0.20;0.20;;;13.90;99.90;;;;;;5074267;28;20028;-66
2023/01/11 02:57:41;;;;;;;1.05;1.05;;;13.90;99.90;;;;;;5074346;28;20024;-66
2023/01/11 03:00:08;;;;;;;0.20;0.20;;;13.80;99.90;;;;;;5074104;28;20078;-66
2023/01/11 03:02:33;;;;;;;0.20;0.20;;;13.80;99.90;;;;;;5074009;28;20090;-67
2023/01/11 03:04:59;;;;;;;0.20;0.20;;;13.90;99.90;;;;;;5074116;28;20091;-67
2023/01/11 03:07:38;;;;;;;0.17;0.17;;;13.80;99.90;;;;;;5074179;28;20439;-66
2023/01/11 03:10:22;;;;;;;0.20;0.20;;;13.70;99.90;;;;;;5073970;28;20024;-66
2023/01/11 03:13:21;;;;;;;0.20;0.20;;;13.70;99.90;;;;;;5073578;28;20036;-67
2023/01/11 03:16:11;;;;;;;1.38;1.38;;;13.70;99.90;;;;;;5073960;28;20138;-67
2023/01/11 03:19:22;;;;;;;1.95;1.85;;;13.70;99.90;;;;;;5073860;28;20127;-67
2023/01/11 03:22:10;;;;;;;0.63;0.63;;;13.70;99.90;;;;;;5073655;28;20035;-67
2023/01/11 03:24:51;;;;;;;0.20;0.20;;;13.70;99.90;;;;;;5073608;28;20025;-67
2023/01/11 03:27:32;;;;;;;0.20;0.20;;;13.70;99.90;;;;;;5073676;28;20033;-67
2023/01/11 03:30:27;;;;;;;2.17;1.92;;;13.70;99.90;;;;;;5073851;28;20398;-67
2023/01/11 03:33:09;;;;;;;18.92;6.63;;;13.80;99.90;;;;;;5073471;28;20354;-67
2023/01/11 03:36:17;;;;;;;0.22;0.22;;;13.80;99.90;;;;;;5073523;28;20036;-66
2023/01/11 03:39:11;;;;;;;0.20;0.20;;;13.80;99.90;;;;;;5033855;28;20056;-67
2023/01/11 03:41:39;;;;;;;3.35;2.10;;;13.80;99.90;;;;;;5062425;28;20032;-67
2023/01/11 03:44:08;;;;;;;0.20;0.20;;;13.80;99.90;;;;;;5073057;28;20033;-67
2023/01/11 03:46:37;;;;;;;0.20;0.20;;;13.80;99.90;;;;;;5073354;28;20025;-66
2023/01/11 03:49:06;;;;;;;0.20;0.20;;;13.80;99.90;;;;;;5073036;28;20474;-68
2023/01/11 03:51:40;;;;;;;0.20;0.20;;;13.80;99.90;;;;;;5073333;28;20033;-67
2023/01/11 03:54:09;;;;;;;0.20;0.20;;;13.70;99.90;;;;;;5072786;28;20071;-68
2023/01/11 03:57:01;;;;;;;0.20;0.20;;;13.70;99.90;;;;;;5071869;28;20101;-67
2023/01/11 03:59:27;;;;;;;0.47;0.47;;;13.80;99.90;;;;;;5072931;28;20103;-66
2023/01/11 04:01:54;;;;;;;0.25;0.25;;;13.70;99.90;;;;;;5073156;28;20179;-67
2023/01/11 04:04:20;;;;;;;0.75;0.75;;;13.70;99.90;;;;;;5072737;28;20024;-66
2023/01/11 04:06:46;;;;;;;0.25;0.25;;;13.70;99.90;;;;;;5072699;28;20032;-66
2023/01/11 04:09:11;;;;;;;0.20;0.20;;;13.60;99.90;;;;;;5072680;28;20028;-66
2023/01/11 04:11:37;;;;;;;0.20;0.20;;;13.60;99.90;;;;;;5072416;28;20107;-67
2023/01/11 04:14:03;;;;;;;0.30;0.30;;;13.60;99.90;;;;;;5072533;28;20079;-66
2023/01/11 04:16:28;;;;;;;0.20;0.20;;;13.50;99.90;;;;;;5071321;28;20025;-66
2023/01/11 04:18:54;;;;;;;0.20;0.20;;;13.60;99.90;;;;;;5072625;28;20060;-67
2023/01/11 04:21:20;;;;;;;0.20;0.20;;;13.50;99.90;;;;;;5072548;28;20048;-67
2023/01/11 04:23:46;;;;;;;0.20;0.20;;;13.50;99.90;;;;;;5072385;28;20193;-67
2023/01/11 04:26:11;;;;;;;0.20;0.20;;;13.50;99.90;;;;;;5072539;28;20021;-66
2023/01/11 04:28:37;;;;;;;0.20;0.20;;;13.40;99.90;;;;;;5072583;28;20043;-67
2023/01/11 04:31:03;;;;;;;0.20;0.20;;;13.40;99.90;;;;;;5072584;28;20366;-67
2023/01/11 04:33:28;;;;;;;0.20;0.20;;;13.40;99.90;;;;;;5072095;28;20388;-66
2023/01/11 04:35:54;;;;;;;0.95;0.95;;;13.40;99.90;;;;;;5072501;28;20033;-69
2023/01/11 04:38:23;;;;;;;0.30;0.30;;;13.40;99.90;;;;;;5072950;28;20025;-67
2023/01/11 04:42:17;;;;;;;0.20;0.20;;;13.40;99.90;;;;;;5073462;28;20036;-66
2023/01/11 04:43:35;;;;;;;0.20;0.20;;;13.40;99.90;;;;;;5072331;28;20107;-66
2023/01/11 04:46:00;;;;;;;0.20;0.20;;;13.40;99.90;;;;;;5072072;28;20109;-67
2023/01/11 04:48:26;;;;;;;7.78;1.75;;;13.40;99.90;;;;;;5072122;28;20476;-66
2023/01/11 04:50:51;;;;;;;0.20;0.20;;;13.40;99.90;;;;;;5071348;28;20465;-66
2023/01/11 04:53:17;;;;;;;0.20;0.20;;;13.40;99.90;;;;;;5072214;28;20124;-67
2023/01/11 04:55:43;;;;;;;0.20;0.20;;;13.30;99.90;;;;;;5072227;28;20374;-66
2023/01/11 04:58:08;;;;;;;0.20;0.20;;;13.30;99.90;;;;;;5072143;28;20560;-66
2023/01/11 05:00:34;;;;;;;0.25;0.25;;;13.30;99.90;;;;;;5071853;28;20031;-65
2023/01/11 05:03:00;;;;;;;0.20;0.20;;;13.30;99.90;;;;;;5071822;28;20032;-66
2023/01/11 05:05:25;;;;;;;0.20;0.20;;;13.20;99.90;;;;;;5071884;28;20103;-66
2023/01/11 05:07:51;;;;;;;0.20;0.20;;;13.20;99.90;;;;;;5071714;28;20036;-66
2023/01/11 05:10:17;;;;;;;0.20;0.20;;;13.10;99.90;;;;;;5071650;28;20020;-66
2023/01/11 05:12:42;;;;;;;0.35;0.35;;;13.10;99.90;;;;;;5071247;28;20031;-66
2023/01/11 05:15:08;;;;;;;0.22;0.22;;;13.10;99.90;;;;;;5071536;28;20041;-67
2023/01/11 05:17:34;;;;;;;0.20;0.20;;;13.00;99.90;;;;;;5071280;28;20027;-67
2023/01/11 05:20:00;;;;;;;0.20;0.20;;;13.00;99.90;;;;;;5071515;28;20026;-67
2023/01/11 05:22:25;;;;;;;0.20;0.20;;;13.00;99.90;;;;;;5071392;28;20089;-67
2023/01/11 05:24:51;;;;;;;0.25;0.25;;;12.90;99.90;;;;;;5071353;28;20027;-66
2023/01/11 05:27:17;;;;;;;0.20;0.20;;;12.90;99.90;;;;;;5072147;28;20021;-66
2023/01/11 05:29:43;;;;;;;0.28;0.28;;;12.90;99.90;;;;;;5072143;28;20035;-67
2023/01/11 05:32:08;;;;;;;0.20;0.20;;;12.90;99.90;;;;;;5071763;28;20107;-66
2023/01/11 05:34:34;;;;;;;0.20;0.20;;;12.90;99.90;;;;;;5071566;28;20116;-66
2023/01/11 05:37:00;;;;;;;0.20;0.20;;;12.80;99.90;;;;;;5072506;28;20458;-66
2023/01/11 05:39:26;;;;;;;0.22;0.22;;;12.80;99.90;;;;;;5073019;28;20042;-67
2023/01/11 05:41:51;;;;;;;0.20;0.20;;;12.80;99.90;;;;;;5072829;28;20031;-67
2023/01/11 05:47:01;;;;;;;0.20;0.20;;;12.90;99.90;;;;;;5071386;28;20061;-67
2023/01/11 05:49:27;;;;;;;0.20;0.20;;;12.90;99.90;;;;;;5071358;28;20024;-67
2023/01/11 05:51:52;;;;;;;0.22;0.22;;;12.90;99.90;;;;;;5071087;28;20063;-67
2023/01/11 05:54:18;;;;;;;0.20;0.20;;;12.90;99.90;;;;;;5069810;28;20072;-67
2023/01/11 05:56:44;;;;;;;0.20;0.20;;;12.80;99.90;;;;;;5071093;28;20036;-67
2023/01/11 05:59:10;;;;;;;0.20;0.20;;;12.80;99.90;;;;;;5071372;28;20480;-68
2023/01/11 06:01:36;;;;;;;0.20;0.20;;;12.70;99.90;;;;;;5070848;28;20417;-67
2023/01/11 06:04:02;;;;;;;0.32;0.32;;;12.80;99.90;;;;;;5071123;28;20029;-67
2023/01/11 06:06:28;;;;;;;0.20;0.20;;;12.80;99.90;;;;;;5070856;28;20457;-67
2023/01/11 06:08:54;;;;;;;0.75;0.70;;;12.80;99.90;;;;;;5053867;28;20021;-67
2023/01/11 06:11:19;;;;;;;0.20;0.20;;;13.00;99.90;;;;;;5069954;28;20024;-67
2023/01/11 06:13:45;;;;;;;6.43;3.53;;;13.00;99.90;;;;;;5060776;28;20490;-67
2023/01/11 06:16:12;;;;;;;0.20;0.20;;;13.10;99.90;;;;;;5052921;28;20026;-67
2023/01/11 06:18:41;;;;;;;0.20;0.20;;;13.00;99.90;;;;;;5070774;28;20029;-67
2023/01/11 06:21:07;;;;;;;0.30;0.30;;;13.10;99.90;;;;;;5070746;28;20074;-67
2023/01/11 06:23:35;;;;;;;0.20;0.20;;;13.10;99.90;;;;;;5071012;28;20029;-67
2023/01/11 06:26:03;;;;;;;0.20;0.20;;;13.10;99.90;;;;;;5051616;28;20063;-66
2023/01/11 06:28:28;;;;;;;0.20;0.20;;;13.10;99.90;;;;;;5052110;28;20108;-66
2023/01/11 06:30:56;;;;;;;0.25;0.25;;;13.10;99.90;;;;;;5070138;28;20104;-68
2023/01/11 06:33:23;;;;;;;0.30;0.30;;;13.10;99.90;;;;;;5070738;28;20032;-67
2023/01/11 06:35:49;;;;;;;0.20;0.20;;;13.10;99.90;;;;;;5070682;28;20099;-69
2023/01/11 06:38:17;;;;;;;0.20;0.20;;;13.10;99.90;;;;;;5070430;28;20413;-67
2023/01/11 06:40:43;;;;;;;0.20;0.20;;;13.10;99.90;;;;;;5071402;28;20028;-67
2023/01/11 06:43:09;;;;;;;0.25;0.25;;;13.10;99.90;;;;;;5071528;28;20033;-68
2023/01/11 06:45:38;;;;;;;9.68;3.13;;;13.20;99.90;;;;;;5070819;28;20082;-68
2023/01/11 06:48:04;;;;;;;0.20;0.20;;;13.30;99.90;;;;;;5070644;28;20058;-68
2023/01/11 06:50:30;;;;;;;0.20;0.20;;;13.30;99.90;;;;;;5070509;28;20504;-68
2023/01/11 06:52:58;;;;;;;0.20;0.20;;;13.30;99.90;;;;;;5064197;28;20028;-67
2023/01/11 06:55:26;;;;;;;0.22;0.22;;;13.30;99.90;;;;;;5055320;28;20029;-66
2023/01/11 06:57:51;;;;;;;0.20;0.20;;;13.30;99.90;;;;;;5063938;28;20032;-66
2023/01/11 07:00:18;;;;;;;0.22;0.22;;;13.30;99.90;;;;;;5057189;28;20021;-68
2023/01/11 07:02:45;;;;;;;0.85;0.85;;;13.30;99.90;;;;;;5054655;28;20454;-67
2023/01/11 07:05:11;;;;;;;0.20;0.20;;;13.30;99.90;;;;;;5058251;28;20123;-67
2023/01/11 07:07:38;;;;;;;0.20;0.20;;;13.30;99.90;;;;;;5067815;28;20562;-67
2023/01/11 07:10:09;;;;;;;0.20;0.20;;;13.40;99.90;;;;;;5063583;28;20060;-67
2023/01/11 07:12:35;;;;;;;0.30;0.30;;;13.40;99.90;;;;;;5055224;28;20043;-67
2023/01/11 07:15:03;;;;;;;1.73;1.63;;;13.40;99.90;;;;;;5062876;28;20041;-68
2023/01/11 07:17:29;;;;;;;0.20;0.20;;;13.40;99.90;;;;;;5072800;28;20031;-67
2023/01/11 07:19:54;;;;;;;0.22;0.22;;;13.40;99.90;;;;;;5063289;28;20041;-68
2023/01/11 07:22:21;;;;;;;0.20;0.20;;;13.40;99.90;;;;;;5060451;28;20025;-67
2023/01/11 07:24:47;;;;;;;0.20;0.20;;;13.40;99.90;;;;;;5069682;28;20033;-67
2023/01/11 07:27:13;;;;;;;0.20;0.20;;;13.40;99.90;;;;;;5073790;28;20030;-67
2023/01/11 07:29:39;;;;;;;0.28;0.28;;;13.40;99.90;;;;;;5073787;28;20112;-67
2023/01/11 07:32:05;;;;;;;0.20;0.20;;;13.30;40.70;;;;;;5063889;28;20028;-68
2023/01/11 07:34:31;;;;;;;0.40;0.40;;;13.30;99.90;;;;;;5057211;28;20029;-67
2023/01/11 07:36:57;;;;;;;5.88;4.28;;;13.20;99.90;;;;;;5053551;28;20082;-68
2023/01/11 07:39:22;;;;;;;0.30;0.30;;;13.10;29.90;;;;;;5059006;28;20024;-67
2023/01/11 07:44:32;;;;;;;2.53;2.40;;;13.10;99.90;;;;;;5053373;28;20024;-68
2023/01/11 07:46:58;;;;;;;0.20;0.20;;;13.00;1.00;;;;;;5052905;28;20025;-68
2023/01/11 07:49:23;;;;;;;0.30;0.30;;;13.00;99.90;;;;;;5065701;28;20028;-68
2023/01/11 07:51:50;;;;;;;0.30;0.30;;;12.90;99.90;;;;;;5062231;28;20040;-66
2023/01/11 07:54:21;;;;;;;0.20;0.20;;;12.90;99.90;;;;;;5064010;28;20068;-69
2023/01/11 07:56:47;;;;;;;0.20;0.20;;;12.80;99.90;;;;;;5066604;28;20028;-68
2023/01/11 07:59:13;;;;;;;0.20;0.20;;;12.80;99.90;;;;;;5055089;28;20078;-67
2023/01/11 08:01:40;;;;;;;0.20;0.20;;;12.80;99.90;;;;;;5070236;28;20579;-68
2023/01/11 08:04:10;;;;;;;1.20;0.70;;;12.80;99.90;;;;;;5070715;28;20409;-68
2023/01/11 08:06:36;;;;;;;0.20;0.20;;;12.90;99.90;;;;;;5056372;28;20029;-68
2023/01/11 08:09:02;;;;;;;0.28;0.28;;;12.90;99.90;;;;;;5067359;28;20141;-67
2023/01/11 08:16:58;;;;;;;0.20;0.20;;;12.90;99.90;;;;;;5052057;28;20041;-68
2023/01/11 08:19:23;;;;;;;0.20;0.20;;;13.00;99.90;;;;;;5053799;28;20591;-67
2023/01/11 08:21:49;;;;;;;0.28;0.28;;;13.00;99.90;;;;;;5072900;28;20095;-68
2023/01/11 08:24:15;;;;;;;0.20;0.20;;;13.00;99.90;;;;;;5072677;28;20020;-67
2023/01/11 08:26:41;;;;;;;4.15;1.95;;;13.10;80.60;;;;;;5072492;28;20035;-68
2023/01/11 08:29:07;;;;;;;0.20;0.20;;;13.10;1.00;;;;;;5072467;28;20024;-68
2023/01/11 08:31:33;;;;;;;0.20;0.20;;;13.20;99.90;;;;;;5072286;28;20027;-67
2023/01/11 08:33:58;;;;;;;0.20;0.20;;;13.20;1.00;;;;;;5072490;28;20041;-67
2023/01/11 08:36:26;;;;;;;0.57;0.55;;;13.20;1.00;;;;;;5072812;28;20025;-67
2023/01/11 08:38:55;;;;;;;0.20;0.20;;;13.10;1.00;;;;;;5072448;28;20443;-68
2023/01/11 08:41:22;;;;;;;0.20;0.20;;;13.10;23.60;;;;;;5072287;28;20543;-67
2023/01/11 08:43:48;;;;;;;0.30;0.30;;;13.20;1.00;;;;;;5072207;28;20479;-67
2023/01/11 08:46:15;;;;;;;0.22;0.22;;;13.20;1.00;;;;;;5071965;28;20029;-68
2023/01/11 08:48:41;;;;;;;0.22;0.22;;;13.30;99.90;;;;;;5072173;28;20028;-67
2023/01/11 08:51:07;;;;;;;0.20;0.20;;;13.30;99.90;;;;;;5072001;28;20024;-67
2023/01/11 08:53:33;;;;;;;0.28;0.28;;;13.20;99.90;;;;;;5071952;28;20033;-68
2023/01/11 08:55:59;;;;;;;0.20;0.20;;;13.30;99.90;;;;;;5072018;28;20074;-67
2023/01/11 08:58:24;;;;;;;0.20;0.20;;;13.20;99.90;;;;;;5071939;28;20024;-67
2023/01/11 09:00:50;;;;;;;0.30;0.30;;;13.30;99.90;;;;;;5070610;28;20107;-67
2023/01/11 09:03:17;;;;;;;2.17;1.20;;;13.30;99.90;;;;;;5071910;28;20025;-67
2023/01/11 09:05:44;;;;;;;0.30;0.30;;;13.30;99.90;;;;;;5072601;28;20085;-66
2023/01/11 09:08:10;;;;;;;0.20;0.20;;;13.30;99.90;;;;;;5072171;28;20024;-67
2023/01/11 09:10:36;;;;;;;1.38;1.27;;;13.20;99.90;;;;;;5072308;28;20428;-67
2023/01/11 09:13:03;;;;;;;0.20;0.20;;;13.30;99.90;;;;;;5071447;28;20021;-68
2023/01/11 09:15:29;;;;;;;0.20;0.20;;;13.30;99.90;;;;;;5071804;28;20056;-67
2023/01/11 09:17:55;;;;;;;0.20;0.20;;;13.30;99.90;;;;;;5071842;28;20059;-67
2023/01/11 09:20:21;;;;;;;2.28;1.75;;;13.30;99.90;;;;;;5071550;28;20025;-68
2023/01/11 09:22:51;;;;;;;0.20;0.20;;;13.30;99.90;;;;;;5071714;28;20070;-67
2023/01/11 09:25:19;;;;;;;0.30;0.30;;;13.40;99.90;;;;;;5053555;28;20334;-68
2023/01/11 09:27:46;;;;;;;0.30;0.30;;;13.30;99.90;;;;;;5051318;28;20119;-67
2023/01/11 09:30:13;;;;;;;0.20;0.20;;;13.30;99.90;;;;;;5051583;28;20094;-67
2023/01/11 09:32:39;;;;;;;0.68;0.68;;;13.30;99.90;;;;;;5051114;28;20384;-68
2023/01/11 09:35:06;;;;;;;0.20;0.20;;;13.30;99.90;;;;;;5062101;28;20103;-67
2023/01/11 09:37:31;;;;;;;5.57;3.50;;;13.30;99.90;;;;;;5056391;28;20504;-67
2023/01/11 09:40:00;;;;;;;0.20;0.20;;;13.30;99.90;;;;;;5058957;28;20025;-68
2023/01/11 09:42:35;;;;;;;0.30;0.30;;;13.30;99.90;;;;;;5068141;28;20056;-68
2023/01/11 09:45:05;;;;;;;1.00;0.98;;;13.40;44.40;;;;;;5054463;28;20371;-69
2023/01/11 09:47:31;;;;;;;0.20;0.20;;;13.40;1.00;;;;;;5051415;28;20025;-66
2023/01/11 09:50:01;;;;;;;0.20;0.20;;;13.40;1.00;;;;;;5058077;28;20029;-67
2023/01/11 09:52:36;;;;;;;0.13;0.13;;;13.30;4.30;;;;;;5058881;28;20477;-67
2023/01/11 09:55:03;;;;;;;0.20;0.20;;;13.30;17.10;;;;;;5061150;28;20477;-67
2023/01/11 09:57:38;;;;;;;0.20;0.20;;;13.30;1.00;;;;;;5055299;28;20013;-66
2023/01/11 10:00:03;;;;;;;1.15;1.05;;;13.40;1.00;;;;;;5061032;28;20036;-67
2023/01/11 10:02:52;;;;;;;1.17;1.17;;;13.30;1.00;;;;;;5051719;28;20025;-67
2023/01/11 10:05:30;;;;;;;0.20;0.20;;;13.30;1.00;;;;;;5055349;28;20044;-67
2023/01/11 10:08:48;;;;;;;0.20;0.20;;;13.30;1.00;;;;;;5055570;28;20036;-67
2023/01/11 10:11:29;;;;;;;0.30;0.30;;;13.30;1.00;;;;;;4987734;28;20065;-67
2023/01/11 10:14:20;;;;;;;0.38;0.38;;;13.30;1.00;;;;;;4974301;28;20058;-68
2023/01/11 10:17:12;;;;;;;0.20;0.20;;;13.30;1.00;;;;;;5030891;28;20285;-67
2023/01/11 10:19:46;;;;;;;0.40;0.40;;;13.30;1.00;;;;;;5049325;28;20025;-67
2023/01/11 10:22:31;;;;;;;0.30;0.30;;;13.40;1.00;;;;;;5070837;28;20385;-67
2023/01/11 10:25:02;;;;;;;0.30;0.30;;;13.40;1.00;;;;;;5061873;28;20095;-67
2023/01/11 10:27:36;;;;;;;0.20;0.20;;;13.40;1.00;;;;;;5064653;28;20037;-68
2023/01/11 10:30:32;;;;;;;0.20;0.20;;;13.50;1.00;;;;;;5056114;28;20477;-67
2023/01/11 10:33:28;;;;;;;0.20;0.20;;;13.50;1.00;;;;;;5070400;28;20025;-68
2023/01/11 10:39:14;;;;;;;0.20;0.20;;;13.60;1.00;;;;;;5051481;28;20095;-68
2023/01/11 10:42:07;;;;;;;0.20;0.20;;;13.60;1.00;;;;;;5053333;28;20054;-67
2023/01/11 10:45:02;;;;;;;0.30;0.30;;;13.60;1.00;;;;;;5063970;28;20021;-67
2023/01/11 10:47:40;;;;;;;0.20;0.20;;;13.60;1.00;;;;;;5060471;28;20402;-68
2023/01/11 10:50:20;;;;;;;0.30;0.30;;;13.60;1.80;;;;;;5072012;28;20020;-67
2023/01/11 10:53:03;;;;;;;1.95;1.67;;;13.60;1.00;;;;;;5064057;28;20333;-68
2023/01/11 10:55:49;;;;;;;29.45;4.25;;;13.60;1.20;;;;;;5054542;28;20104;-66
2023/01/11 10:58:39;;;;;;;0.40;0.40;;;13.60;1.00;;;;;;5061087;28;20107;-66
2023/01/11 11:01:25;;;;;;;0.20;0.20;;;13.60;1.00;;;;;;5064058;28;20027;-66
2023/01/11 11:04:38;;;;;;;0.20;0.20;;;13.60;99.90;;;;;;5068814;28;20052;-67
2023/01/11 11:07:13;;;;;;;0.20;0.20;;;13.70;99.90;;;;;;5068139;28;20502;-68
2023/01/11 11:09:56;;;;;;;0.20;0.20;;;13.70;99.90;;;;;;5053573;28;20047;-66
2023/01/11 11:12:29;;;;;;;28.60;3.67;;;13.70;99.90;;;;;;5052814;28;20021;-65
2023/01/11 11:15:03;;;;;;;27.02;2.90;;;13.70;99.90;;;;;;5053420;28;20077;-66
2023/01/11 11:17:38;;;;;;;26.20;3.90;;;13.70;99.90;;;;;;5055953;28;20112;-65
2023/01/11 11:20:19;;;;;;;23.17;3.03;;;13.80;99.90;;;;;;5054163;28;20033;-67
2023/01/11 11:22:49;;;;;;;16.48;3.17;;;13.80;99.90;;;;;;5062134;28;20154;-66
2023/01/11 11:25:19;;;;;;;25.80;3.40;;;13.80;99.90;;;;;;5067226;28;20320;-66
2023/01/11 11:27:47;;;;;;;29.67;3.97;;;13.90;99.90;;;;;;5057059;28;20167;-66
2023/01/11 11:30:25;;;;;;;12.35;2.40;;;13.90;99.90;;;;;;5063305;28;20381;-67
2023/01/11 11:32:56;;;;;;;20.77;2.65;;;13.90;99.90;;;;;;5066794;28;20024;-67
2023/01/11 11:35:29;;;;;;;17.67;2.78;;;14.00;99.90;;;;;;5061134;28;20036;-68
2023/01/11 11:37:55;;;;;;;29.58;3.63;;;14.00;99.90;;;;;;5067373;28;20064;-67
2023/01/11 11:40:36;;;;;;;14.45;2.67;;;14.10;99.90;;;;;;5068643;28;20048;-67
2023/01/11 11:43:19;;;;;;;23.70;3.28;;;14.00;99.90;;;;;;5054001;28;20492;-67
2023/01/11 11:45:55;;;;;;;15.00;2.45;;;13.90;99.90;;;;;;5055130;28;20425;-67
2023/01/11 11:48:22;;;;;;;10.98;2.17;;;13.80;99.90;;;;;;5078872;28;20033;-68
2023/01/11 11:50:49;;;;;;;14.38;2.05;;;13.70;99.90;;;;;;5059039;28;20455;-67
2023/01/11 11:53:38;;;;;;;10.65;2.53;;;13.80;99.90;;;;;;5061854;28;20035;-66
2023/01/11 11:56:23;;;;;;;19.83;2.75;;;13.80;99.90;;;;;;5053578;28;20043;-67
2023/01/11 11:58:50;;;;;;;17.20;2.83;;;13.90;99.90;;;;;;5055688;28;20064;-67
2023/01/11 12:01:22;;;;;;;21.92;2.83;;;13.90;99.90;;;;;;5058030;28;20432;-68
2023/01/11 12:04:00;;;;;;;19.15;3.55;;;13.90;99.90;;;;;;5066903;28;20040;-68
2023/01/11 12:06:28;;;;;;;22.02;2.22;;;14.00;99.90;;;;;;5071871;28;20032;-67
2023/01/11 12:08:56;;;;;;;26.45;4.20;;;14.10;99.90;;;;;;5063725;28;20350;-68
2023/01/11 12:11:31;;;;;;;10.80;2.03;;;14.10;99.90;;;;;;5062538;28;20024;-67
2023/01/11 12:14:09;;;;;;;18.73;3.58;;;14.00;99.90;;;;;;5059324;28;20049;-66
2023/01/11 12:16:38;;;;;;;10.07;2.53;;;14.00;99.90;;;;;;5062122;28;20416;-67
2023/01/11 12:19:23;;;;;;;19.67;2.65;;;14.00;99.90;;;;;;5057452;28;20029;-66
2023/01/11 12:21:49;;;;;;;14.68;2.88;;;14.10;99.90;;;;;;5053906;28;20518;-67
2023/01/11 12:24:18;;;;;;;15.10;1.85;;;14.10;99.90;;;;;;5051624;28;20032;-67
2023/01/11 12:26:57;;;;;;;12.32;2.40;;;14.20;99.90;;;;;;5071714;28;20438;-68
2023/01/11 12:29:29;;;;;;;19.73;2.25;;;14.20;99.90;;;;;;5067883;28;20119;-67
2023/01/11 12:32:03;;;;;;;14.50;2.83;;;14.40;99.90;;;;;;5054914;28;20029;-68
2023/01/11 12:34:36;;;;;;;21.23;4.28;;;14.40;99.90;;;;;;5056474;28;20041;-67
2023/01/11 12:37:26;;;;;;;18.42;3.10;;;14.70;99.90;;;;;;5052624;28;20167;-67
2023/01/11 12:40:33;;;;;;;13.77;4.05;;;15.00;99.90;;;;;;5055839;28;20025;-67
2023/01/11 12:43:07;;;;;;;33.13;4.03;;;14.90;99.90;;;;;;5072279;28;20020;-67
2023/01/11 12:46:05;;;;;;;18.75;2.55;;;14.80;99.90;;;;;;5074287;28;20035;-67
2023/01/11 12:48:45;;;;;;;20.95;3.42;;;14.60;99.90;;;;;;5071124;28;20501;-67
2023/01/11 12:51:29;;;;;;;17.85;2.72;;;14.60;99.90;;;;;;5066929;28;20113;-66
2023/01/11 12:54:14;;;;;;;22.88;6.03;;;14.50;99.90;;;;;;5059804;28;20116;-66
2023/01/11 12:56:57;;;;;;;25.95;3.78;;;14.80;99.90;;;;;;5069113;28;20054;-66
2023/01/11 12:59:45;;;;;;;31.85;4.25;;;15.30;99.90;;;;;;5072184;28;20048;-66
2023/01/11 13:02:46;;;;;;;18.42;3.90;;;15.60;99.90;;;;;;5063761;28;20541;-67
2023/01/11 13:05:29;;;;;;;28.90;4.57;;;15.80;99.90;;;;;;5061052;28;20111;-67
2023/01/11 13:08:28;;;;;;;27.33;4.05;;;16.00;99.90;;;;;;5061960;28;20031;-66
2023/01/11 13:11:33;;;;;;;17.63;3.47;;;15.90;99.90;;;;;;5061153;28;20358;-67
2023/01/11 13:14:23;;;;;;;18.40;4.03;;;15.50;99.90;;;;;;5055081;28;20127;-67
2023/01/11 13:16:59;;;;;;;26.30;4.32;;;15.00;99.90;;;;;;5060189;28;20025;-66
2023/01/11 13:19:54;;;;;;;23.80;3.78;;;14.70;99.90;;;;;;5053189;28;20024;-67
2023/01/11 13:22:27;;;;;;;23.65;4.47;;;14.60;99.90;;;;;;5059579;28;20433;-66
2023/01/11 13:24:52;;;;;;;30.63;4.63;;;14.50;99.90;;;;;;5060519;28;20044;-68
2023/01/11 13:27:23;;;;;;;21.73;4.32;;;14.60;99.90;;;;;;5058125;28;20020;-66
2023/01/11 13:29:58;;;;;;;11.23;3.47;;;14.70;99.90;;;;;;5059308;28;20025;-67
2023/01/11 13:32:37;;;;;;;28.48;3.88;;;14.70;99.90;;;;;;5067009;28;20277;-66
2023/01/11 13:35:13;;;;;;;18.73;2.75;;;14.60;99.90;;;;;;5060167;28;20029;-66
2023/01/11 13:37:45;;;;;;;26.48;4.95;;;14.60;99.90;;;;;;5059255;28;20016;-68
2023/01/11 13:40:27;;;;;;;15.15;2.42;;;14.60;99.90;;;;;;5063592;28;20082;-66
2023/01/11 13:43:15;;;;;;;29.73;3.58;;;14.60;99.90;;;;;;5055462;28;20028;-66
2023/01/11 13:45:53;;;;;;;20.85;4.00;;;14.80;99.90;;;;;;5056700;28;20043;-67